createdAt,value
2023-02-23T00:00:46.138Z,78.31
2023-02-23T00:05:50.020Z,78.42
2023-02-23T00:10:59.416Z,78.53
2023-02-23T00:16:06.991Z,78.27
2023-02-23T00:21:10.833Z,78.62
2023-02-23T00:26:14.819Z,78.74
2023-02-23T00:31:19.993Z,78.50
2023-02-23T00:36:27.539Z,78.22
2023-02-23T00:41:31.336Z,78.62
2023-02-23T00:46:35.581Z,78.97
2023-02-23T00:51:39.950Z,78.54
2023-02-23T00:56:44.169Z,78.63
2023-02-23T01:01:48.268Z,78.89
2023-02-23T01:06:52.223Z,78.14
2023-02-23T01:11:58.050Z,78.55
2023-02-23T01:17:01.882Z,78.27
2023-02-23T01:22:06.189Z,78.23
2023-02-23T01:27:10.010Z,78.44
2023-02-23T01:32:15.030Z,78.63
2023-02-23T01:37:18.870Z,78.67
2023-02-23T01:42:23.614Z,78.59
2023-02-23T01:47:28.169Z,78.27
2023-02-23T01:52:35.629Z,78.83
2023-02-23T01:57:42.231Z,78.90
2023-02-23T02:02:49.468Z,79.13
2023-02-23T02:07:59.700Z,79.16
2023-02-23T02:13:06.931Z,78.55
2023-02-23T02:18:38.913Z,78.89
2023-02-23T02:23:46.866Z,78.82
2023-02-23T02:29:28.359Z,78.47
2023-02-23T02:34:51.265Z,77.85
2023-02-23T02:40:17.210Z,78.40
2023-02-23T02:45:24.132Z,77.48
2023-02-23T02:51:06.684Z,77.81
2023-02-23T02:56:12.271Z,77.87
2023-02-23T03:01:38.181Z,77.99
2023-02-23T03:07:07.828Z,77.60
2023-02-23T03:12:45.313Z,77.42
2023-02-23T03:18:19.213Z,77.14
2023-02-23T03:24:09.127Z,77.10
2023-02-23T03:29:37.335Z,76.60
2023-02-23T03:35:09.936Z,75.84
2023-02-23T03:40:45.564Z,75.94
2023-02-23T03:46:09.203Z,76.06
2023-02-23T03:51:37.134Z,75.84
2023-02-23T03:57:04.469Z,75.35
2023-02-23T04:02:29.569Z,74.65
2023-02-23T04:07:54.148Z,74.89
2023-02-23T04:13:31.577Z,74.28
2023-02-23T04:18:37.920Z,73.32
2023-02-23T04:23:43.575Z,72.75
2023-02-23T04:28:47.382Z,73.15
2023-02-23T04:33:52.038Z,72.16
2023-02-23T04:38:55.966Z,71.48
2023-02-23T04:43:59.787Z,71.56
2023-02-23T04:49:04.919Z,71.54
2023-02-23T04:54:08.925Z,71.47
2023-02-23T04:59:13.158Z,70.92
2023-02-23T05:04:16.983Z,71.20
2023-02-23T05:09:21.325Z,70.91
2023-02-23T05:14:27.145Z,70.41
2023-02-23T05:19:31.015Z,70.22
2023-02-23T05:24:35.061Z,70.21
2023-02-23T05:29:39.004Z,70.10
2023-02-23T05:34:43.023Z,70.00
2023-02-23T05:39:48.242Z,69.56
2023-02-23T05:44:52.209Z,69.01
2023-02-23T05:49:56.182Z,69.17
2023-02-23T05:55:00.280Z,68.81
2023-02-23T06:00:06.378Z,68.68
2023-02-23T06:05:12.463Z,68.20
2023-02-23T06:10:17.460Z,67.84
2023-02-23T06:15:21.224Z,67.96
2023-02-23T06:20:25.151Z,67.70
2023-02-23T06:25:28.833Z,67.17
2023-02-23T06:30:32.866Z,66.58
2023-02-23T06:35:36.998Z,65.49
2023-02-23T06:40:42.356Z,65.84
2023-02-23T06:45:48.811Z,65.72
2023-02-23T06:50:54.854Z,65.81
2023-02-23T06:55:58.819Z,65.44
2023-02-23T07:01:02.875Z,65.38
2023-02-23T07:06:07.596Z,64.84
2023-02-23T07:11:14.656Z,65.38
2023-02-23T07:16:18.571Z,64.86
2023-02-23T07:21:23.343Z,64.69
2023-02-23T07:26:27.382Z,64.79
2023-02-23T07:31:31.541Z,64.54
2023-02-23T07:36:35.969Z,64.23
2023-02-23T07:41:39.769Z,64.21
2023-02-23T07:46:53.797Z,63.69
2023-02-23T07:51:57.601Z,63.36
2023-02-23T07:57:01.983Z,62.78
2023-02-23T08:02:06.040Z,62.03
2023-02-23T08:07:11.222Z,61.80
2023-02-23T08:12:16.543Z,61.62
2023-02-23T08:17:20.722Z,61.59
2023-02-23T08:22:24.743Z,61.58
2023-02-23T08:27:28.522Z,62.06
2023-02-23T08:32:37.596Z,61.65
2023-02-23T08:37:43.510Z,61.42
2023-02-23T08:42:52.990Z,61.35
2023-02-23T08:47:57.461Z,61.54
2023-02-23T08:53:01.304Z,61.35
2023-02-23T08:58:10.037Z,61.05
2023-02-23T09:03:13.909Z,61.05
2023-02-23T09:08:17.723Z,61.45
2023-02-23T09:13:21.697Z,61.68
2023-02-23T09:18:30.322Z,61.73
2023-02-23T09:23:37.953Z,61.50
2023-02-23T09:28:41.992Z,61.62
2023-02-23T09:33:46.021Z,62.13
2023-02-23T09:38:57.173Z,62.24
2023-02-23T09:44:14.366Z,62.17
2023-02-23T09:49:22.652Z,62.16
2023-02-23T09:54:31.365Z,62.16
2023-02-23T09:59:36.883Z,61.92
2023-02-23T10:04:50.293Z,62.38
2023-02-23T10:10:27.176Z,62.92
2023-02-23T10:15:42.937Z,62.72
2023-02-23T10:21:14.980Z,62.84
2023-02-23T10:26:25.248Z,62.97
2023-02-23T10:31:43.035Z,62.50
2023-02-23T10:37:03.069Z,63.09
2023-02-23T10:42:15.743Z,63.07
2023-02-23T10:47:27.621Z,63.84
2023-02-23T10:52:32.689Z,65.07
2023-02-23T10:57:40.712Z,65.78
2023-02-23T11:02:46.689Z,66.91
2023-02-23T11:07:50.521Z,67.75
2023-02-23T11:12:54.745Z,69.81
2023-02-23T11:18:01.556Z,70.18
2023-02-23T11:23:31.250Z,70.98
2023-02-23T11:28:37.755Z,71.80
2023-02-23T11:33:41.857Z,71.95
2023-02-23T11:38:48.533Z,73.17
2023-02-23T11:43:57.619Z,73.67
2023-02-23T11:49:07.212Z,74.07
2023-02-23T11:54:28.234Z,74.61
2023-02-23T11:59:40.411Z,74.97
2023-02-23T12:04:48.583Z,75.39
2023-02-23T12:10:07.288Z,75.86
2023-02-23T12:15:29.472Z,76.18
2023-02-23T12:20:40.701Z,76.22
2023-02-23T12:25:53.808Z,76.73
2023-02-23T12:31:05.925Z,76.56
2023-02-23T12:36:36.188Z,77.35
2023-02-23T12:42:18.577Z,77.20
2023-02-23T12:47:42.088Z,77.06
2023-02-23T12:52:59.474Z,77.04
2023-02-23T12:58:24.219Z,77.19
2023-02-23T13:03:49.425Z,77.65
2023-02-23T13:09:15.658Z,77.83
2023-02-23T13:14:59.540Z,78.59
2023-02-23T13:20:20.763Z,77.87
2023-02-23T13:25:39.110Z,78.70
2023-02-23T13:30:48.414Z,78.96
2023-02-23T13:35:52.721Z,78.79
2023-02-23T13:41:13.784Z,78.62
2023-02-23T13:46:39.954Z,79.13
2023-02-23T13:52:00.986Z,79.13
2023-02-23T13:57:14.188Z,78.77
2023-02-23T14:02:40.000Z,78.89
2023-02-23T14:07:46.498Z,79.61
2023-02-23T14:13:18.728Z,79.48
2023-02-23T14:18:22.484Z,79.22
2023-02-23T14:23:27.304Z,79.53
2023-02-23T14:28:34.399Z,79.48
2023-02-23T14:33:52.915Z,79.38
2023-02-23T14:39:03.353Z,80.08
2023-02-23T14:44:30.047Z,79.90
2023-02-23T14:49:44.596Z,79.87
2023-02-23T14:54:49.077Z,80.15
2023-02-23T15:00:08.480Z,80.39
2023-02-23T15:05:16.813Z,79.93
2023-02-23T15:10:30.833Z,79.79
2023-02-23T15:15:34.910Z,80.53
2023-02-23T15:20:38.771Z,80.29
2023-02-23T15:25:45.195Z,80.43
2023-02-23T15:30:51.601Z,80.29
2023-02-23T15:35:57.140Z,80.64
2023-02-23T15:41:05.124Z,80.35
2023-02-23T15:46:10.400Z,80.80
2023-02-23T15:51:30.670Z,80.63
2023-02-23T15:56:35.815Z,80.87
2023-02-23T16:01:45.452Z,80.49
2023-02-23T16:07:07.133Z,80.33
2023-02-23T16:12:18.191Z,80.34
2023-02-23T16:17:35.308Z,80.22
2023-02-23T16:22:40.665Z,80.59
2023-02-23T16:27:46.609Z,81.03
2023-02-23T16:33:08.321Z,80.80
2023-02-23T16:38:14.481Z,81.00
2023-02-23T16:43:18.341Z,79.98
2023-02-23T16:48:23.943Z,80.45
2023-02-23T16:53:28.101Z,79.92
2023-02-23T16:58:36.765Z,80.21
2023-02-23T17:03:47.394Z,80.18
2023-02-23T17:08:58.750Z,80.69
2023-02-23T17:14:03.038Z,79.91
2023-02-23T17:19:08.103Z,80.04
2023-02-23T17:24:11.958Z,80.11
2023-02-23T17:29:15.775Z,79.94
2023-02-23T17:34:19.625Z,79.53
2023-02-23T17:39:28.690Z,79.52
2023-02-23T17:44:32.515Z,79.47
2023-02-23T17:49:36.741Z,80.10
2023-02-23T17:54:40.776Z,79.51
2023-02-23T17:59:44.750Z,79.64
2023-02-23T18:04:50.585Z,79.63
2023-02-23T18:09:54.653Z,79.86
2023-02-23T18:14:59.092Z,79.86
2023-02-23T18:20:03.029Z,79.73
2023-02-23T18:25:07.601Z,80.25
2023-02-23T18:30:12.148Z,80.13
2023-02-23T18:35:16.278Z,79.89
2023-02-23T18:40:24.574Z,80.14
2023-02-23T18:45:28.728Z,79.90
2023-02-23T18:50:32.747Z,80.06
2023-02-23T18:55:38.540Z,80.21
2023-02-23T19:00:43.746Z,79.94
2023-02-23T19:05:53.876Z,80.06
2023-02-23T19:10:58.813Z,80.01
2023-02-23T19:16:10.090Z,79.88
2023-02-23T19:21:15.765Z,80.00
2023-02-23T19:26:20.248Z,80.57
2023-02-23T19:31:26.690Z,80.00
2023-02-23T19:36:32.394Z,80.42
2023-02-23T19:41:36.490Z,80.18
2023-02-23T19:46:40.680Z,79.83
2023-02-23T19:51:45.828Z,80.24
2023-02-23T19:56:50.534Z,80.32
2023-02-23T20:01:54.572Z,79.60
2023-02-23T20:06:58.586Z,79.93
2023-02-23T20:12:02.487Z,79.82
2023-02-23T20:17:07.205Z,80.08
2023-02-23T20:22:10.975Z,79.22
2023-02-23T20:27:14.913Z,79.83
2023-02-23T20:32:18.790Z,79.90
2023-02-23T20:37:32.008Z,79.89
2023-02-23T20:42:35.868Z,79.18
2023-02-23T20:47:40.030Z,79.59
2023-02-23T20:52:45.061Z,79.34
2023-02-23T20:57:49.446Z,79.78
2023-02-23T21:02:56.191Z,79.75
2023-02-23T21:08:02.345Z,79.41
2023-02-23T21:13:06.896Z,79.37
2023-02-23T21:18:11.304Z,79.07
2023-02-23T21:23:18.268Z,79.15
2023-02-23T21:28:22.843Z,79.49
2023-02-23T21:33:26.891Z,78.90
2023-02-23T21:38:30.796Z,79.70
2023-02-23T21:43:39.753Z,78.94
2023-02-23T21:48:44.350Z,79.42
2023-02-23T21:53:49.842Z,79.31
2023-02-23T21:58:56.737Z,79.03
2023-02-23T22:04:00.533Z,79.26
2023-02-23T22:09:07.418Z,79.41
2023-02-23T22:14:11.940Z,79.01
2023-02-23T22:19:16.702Z,79.60
2023-02-23T22:24:20.526Z,78.70
2023-02-23T22:29:26.091Z,79.39
2023-02-23T22:34:29.879Z,78.39
2023-02-23T22:39:34.288Z,78.41
2023-02-23T22:44:39.897Z,78.15
2023-02-23T22:49:43.574Z,78.44
2023-02-23T22:54:48.682Z,78.37
2023-02-23T23:00:01.192Z,78.11
2023-02-23T23:05:08.748Z,77.64
2023-02-23T23:10:13.545Z,77.90
2023-02-23T23:15:19.972Z,77.35
2023-02-23T23:20:26.525Z,77.47
2023-02-23T23:25:30.324Z,77.11
2023-02-23T23:30:36.056Z,76.81
2023-02-23T23:35:39.875Z,77.24
2023-02-23T23:40:47.637Z,76.72
2023-02-23T23:45:52.400Z,76.44
2023-02-23T23:50:56.960Z,76.69
2023-02-23T23:56:06.986Z,75.87
